Time;durP1;ratioP1;P1;durP2;ratioP2;P2;SDS_P1;SDS_P2;PMS_P1;PMS_P2;Temp;Humidity;BMP_temperature;BMP_pressure;BME280_temperature;BME280_humidity;BME280_pressure;Samples;Min_cycle;Max_cycle;Signal;HPM_P1;HPM_P2
2022/07/06 00:01:00;;;;;;;;;;;;;;;12.78;69.20;102515.47;5085866;28;19919;-57
2022/07/06 00:03:25;;;;;;;;;;;;;;;12.81;69.29;102517.84;5087672;28;20002;-57
2022/07/06 00:05:50;;;;;;;;;;;;;;;12.83;69.33;102518.53;5088076;28;19934;-58
2022/07/06 00:08:15;;;;;;;;;;;;;;;12.86;69.60;102523.56;5087446;28;20389;-57
2022/07/06 00:10:40;;;;;;;;;;;;;;;12.87;69.34;102522.59;5088043;28;19908;-55
2022/07/06 00:13:06;;;;;;;;;;;;;;;12.87;69.47;102525.25;5086265;28;19916;-55
2022/07/06 00:15:31;;;;;;;;;;;;;;;12.86;69.92;102518.25;5087959;28;20057;-57
2022/07/06 00:17:56;;;;;;;;;;;;;;;12.86;69.83;102518.25;5084804;28;19912;-55
2022/07/06 00:20:21;;;;;;;;;;;;;;;12.85;69.93;102528.06;5087319;28;19911;-57
2022/07/06 00:22:46;;;;;;;;;;;;;;;12.85;70.10;102527.22;5089464;28;20351;-56
2022/07/06 00:25:12;;;;;;;;;;;;;;;12.83;70.27;102522.03;5090742;28;19969;-57
2022/07/06 00:27:37;;;;;;;;;;;;;;;12.78;70.30;102528.78;5087691;28;19965;-57
2022/07/06 00:30:02;;;;;;;;;;;;;;;12.74;70.38;102533.56;5090710;28;19916;-57
2022/07/06 00:32:28;;;;;;;;;;;;;;;12.70;70.70;102527.66;5088268;28;19912;-56
2022/07/06 00:34:53;;;;;;;;;;;;;;;12.67;70.66;102522.63;5089400;28;19920;-59
2022/07/06 00:37:19;;;;;;;;;;;;;;;12.59;70.61;102524.31;5091078;28;19922;-57
2022/07/06 00:39:44;;;;;;;;;;;;;;;12.52;71.07;102523.22;5091478;28;20356;-57
2022/07/06 00:42:09;;;;;;;;;;;;;;;12.49;70.82;102528.84;5087309;28;19962;-57
2022/07/06 00:44:34;;;;;;;;;;;;;;;12.44;71.59;102523.94;5089597;28;19920;-57
2022/07/06 00:46:59;;;;;;;;;;;;;;;12.40;71.50;102518.03;5090158;28;20411;-56
2022/07/06 00:52:09;;;;;;;;;;;;;;;12.38;72.11;102520.00;5087191;28;20424;-57
2022/07/06 00:54:34;;;;;;;;;;;;;;;12.38;71.77;102516.47;5087027;28;19916;-57
2022/07/06 00:56:59;;;;;;;;;;;;;;;12.39;72.12;102518.16;5085261;28;19912;-58
2022/07/06 00:59:25;;;;;;;;;;;;;;;12.40;72.28;102515.34;5086184;28;19947;-56
2022/07/06 01:01:50;;;;;;;;;;;;;;;12.44;72.25;102523.09;5084413;28;20284;-57
2022/07/06 01:04:16;;;;;;;;;;;;;;;12.41;72.46;102525.03;5085367;28;19912;-57
2022/07/06 01:06:41;;;;;;;;;;;;;;;12.36;72.52;102516.63;5083651;28;19912;-58
2022/07/06 01:09:07;;;;;;;;;;;;;;;12.27;72.40;102513.97;5083505;28;19912;-57
2022/07/06 01:11:32;;;;;;;;;;;;;;;12.16;72.36;102514.13;5083800;28;19912;-56
2022/07/06 01:13:59;;;;;;;;;;;;;;;12.01;72.41;102522.50;5089049;28;19912;-57
2022/07/06 01:16:24;;;;;;;;;;;;;;;11.90;72.79;102514.66;5086651;28;19959;-56
2022/07/06 01:18:50;;;;;;;;;;;;;;;11.82;73.00;102514.50;5087664;28;20217;-57
2022/07/06 01:21:15;;;;;;;;;;;;;;;11.74;73.28;102516.97;5085656;28;19962;-57
2022/07/06 01:23:45;;;;;;;;;;;;;;;11.62;73.71;102510.09;5085575;28;19920;-55
2022/07/06 01:26:14;;;;;;;;;;;;;;;11.52;73.81;102519.84;5087316;28;19955;-56
2022/07/06 01:28:39;;;;;;;;;;;;;;;11.42;74.30;102520.66;5085318;28;19912;-58
2022/07/06 01:31:05;;;;;;;;;;;;;;;11.38;74.38;102513.09;5086543;28;19919;-56
2022/07/06 01:33:30;;;;;;;;;;;;;;;11.35;74.61;102514.22;5086243;28;19918;-57
2022/07/06 01:35:55;;;;;;;;;;;;;;;11.25;74.81;102507.16;5086464;28;19961;-57
2022/07/06 01:38:20;;;;;;;;;;;;;;;11.20;75.22;102512.88;5082307;28;19973;-57
2022/07/06 01:40:46;;;;;;;;;;;;;;;11.22;75.47;102512.75;5086943;28;19915;-58
2022/07/06 01:43:11;;;;;;;;;;;;;;;11.24;75.67;102508.97;5087304;28;20003;-56
2022/07/06 01:45:36;;;;;;;;;;;;;;;11.26;75.85;102514.16;5086184;28;19965;-57
2022/07/06 01:48:05;;;;;;;;;;;;;;;11.29;76.00;102517.41;5086217;28;19915;-58
2022/07/06 01:50:30;;;;;;;;;;;;;;;11.32;75.69;102519.81;5088617;28;19912;-57
2022/07/06 01:52:55;;;;;;;;;;;;;;;11.34;75.89;102517.00;5083520;28;19923;-56
2022/07/06 01:55:20;;;;;;;;;;;;;;;11.32;75.77;102514.47;5086263;28;20400;-57
2022/07/06 01:57:45;;;;;;;;;;;;;;;11.32;75.82;102527.78;5087469;28;19908;-55
2022/07/06 02:00:11;;;;;;;;;;;;;;;11.33;75.83;102516.16;5086058;28;19919;-57
2022/07/06 02:02:36;;;;;;;;;;;;;;;11.35;75.98;102514.22;5086240;28;19919;-56
2022/07/06 02:05:01;;;;;;;;;;;;;;;11.35;76.11;102513.38;5086530;28;19908;-56
2022/07/06 02:07:26;;;;;;;;;;;;;;;11.29;76.17;102517.41;5078576;28;19911;-56
2022/07/06 02:09:51;;;;;;;;;;;;;;;11.27;76.39;102516.69;5085498;28;19908;-57
2022/07/06 02:12:16;;;;;;;;;;;;;;;11.24;76.19;102518.78;5084358;28;19936;-57
2022/07/06 02:14:42;;;;;;;;;;;;;;;11.20;76.17;102515.53;5086821;28;19916;-58
2022/07/06 02:17:07;;;;;;;;;;;;;;;11.12;76.68;102518.88;5086564;28;19908;-57
2022/07/06 02:19:32;;;;;;;;;;;;;;;11.08;76.84;102516.63;5083312;28;19916;-59
2022/07/06 02:21:57;;;;;;;;;;;;;;;11.09;77.08;102524.47;5086512;28;19908;-57
2022/07/06 02:24:22;;;;;;;;;;;;;;;11.11;77.14;102524.31;5086446;28;20005;-57
2022/07/06 02:26:48;;;;;;;;;;;;;;;11.09;76.90;102521.78;5085206;28;20325;-57
2022/07/06 02:29:13;;;;;;;;;;;;;;;11.09;77.23;102524.47;5085160;28;19967;-57
2022/07/06 02:31:38;;;;;;;;;;;;;;;11.07;77.06;102529.06;5086427;28;19919;-57
2022/07/06 02:34:03;;;;;;;;;;;;;;;11.05;77.17;102528.34;5081593;28;19916;-57
2022/07/06 02:36:28;;;;;;;;;;;;;;;11.01;77.27;102515.47;5089843;28;20015;-57
2022/07/06 02:38:53;;;;;;;;;;;;;;;10.96;77.04;102515.84;5087438;28;19931;-55
2022/07/06 02:41:19;;;;;;;;;;;;;;;10.94;76.96;102514.28;5089288;28;19915;-58
2022/07/06 02:43:44;;;;;;;;;;;;;;;10.93;76.95;102517.91;5087988;28;20527;-56
2022/07/06 02:46:09;;;;;;;;;;;;;;;10.93;77.00;102516.09;5086383;28;20015;-57
2022/07/06 02:48:34;;;;;;;;;;;;;;;10.95;77.29;102521.28;5088098;28;19981;-57
2022/07/06 02:50:59;;;;;;;;;;;;;;;10.95;77.53;102518.63;5082978;28;19912;-56
2022/07/06 02:53:25;;;;;;;;;;;;;;;10.93;77.27;102524.06;5080419;28;20382;-55
2022/07/06 02:55:50;;;;;;;;;;;;;;;10.91;77.30;102523.38;5090297;28;19918;-56
2022/07/06 02:58:15;;;;;;;;;;;;;;;10.89;77.39;102521.81;5084768;28;20594;-57
2022/07/06 03:00:40;;;;;;;;;;;;;;;10.79;77.73;102522.63;5076842;28;19920;-57
2022/07/06 03:03:05;;;;;;;;;;;;;;;10.74;78.12;102521.31;5078865;28;19919;-58
2022/07/06 03:05:30;;;;;;;;;;;;;;;10.72;78.20;102529.44;5079865;28;19920;-57
2022/07/06 03:07:56;;;;;;;;;;;;;;;10.73;78.29;102539.09;5088843;28;19908;-57
2022/07/06 03:10:21;;;;;;;;;;;;;;;10.74;78.69;102538.13;5087384;28;19908;-57
2022/07/06 03:12:46;;;;;;;;;;;;;;;10.76;78.97;102533.50;5088480;28;19954;-57
2022/07/06 03:15:12;;;;;;;;;;;;;;;10.81;79.02;102536.59;5087137;28;20422;-56
2022/07/06 03:17:37;;;;;;;;;;;;;;;10.88;78.98;102536.09;5085516;28;19920;-57
2022/07/06 03:20:03;;;;;;;;;;;;;;;10.91;79.18;102534.00;5082589;28;19949;-57
2022/07/06 03:22:29;;;;;;;;;;;;;;;10.93;78.72;102532.06;5087141;28;20402;-57
2022/07/06 03:24:54;;;;;;;;;;;;;;;10.92;78.97;102530.38;5087761;28;19940;-58
2022/07/06 03:27:19;;;;;;;;;;;;;;;10.87;78.86;102521.94;5084279;28;19920;-57
2022/07/06 03:29:44;;;;;;;;;;;;;;;10.82;78.97;102529.47;5080757;28;20414;-56
2022/07/06 03:32:09;;;;;;;;;;;;;;;10.81;78.85;102530.44;5079397;28;19915;-57
2022/07/06 03:34:34;;;;;;;;;;;;;;;10.78;79.14;102531.56;5084639;28;19916;-55
2022/07/06 03:37:00;;;;;;;;;;;;;;;10.76;79.39;102533.50;5082785;28;19958;-56
2022/07/06 03:39:25;;;;;;;;;;;;;;;10.76;79.29;102537.97;5080555;28;19911;-57
2022/07/06 03:41:50;;;;;;;;;;;;;;;10.73;79.59;102535.59;5086308;28;19921;-57
2022/07/06 03:44:15;;;;;;;;;;;;;;;10.75;79.39;102537.13;5078597;28;20651;-56
2022/07/06 03:46:40;;;;;;;;;;;;;;;10.76;79.26;102528.19;5088488;28;19919;-56
2022/07/06 03:49:06;;;;;;;;;;;;;;;10.79;79.51;102521.78;5087176;28;19918;-59
2022/07/06 03:51:31;;;;;;;;;;;;;;;10.85;79.44;102523.91;5087644;28;19918;-57
2022/07/06 03:53:56;;;;;;;;;;;;;;;10.88;79.08;102526.28;5088574;28;19934;-57
2022/07/06 03:56:27;;;;;;;;;;;;;;;10.86;79.04;102534.41;5086060;28;19916;-58
2022/07/06 03:58:53;;;;;;;;;;;;;;;10.85;79.41;102538.03;5089214;28;19912;-57
2022/07/06 04:01:18;;;;;;;;;;;;;;;10.85;79.27;102530.06;5084407;28;19915;-57
2022/07/06 04:03:44;;;;;;;;;;;;;;;10.85;79.55;102535.38;5087555;28;19912;-57
2022/07/06 04:06:09;;;;;;;;;;;;;;;10.79;79.33;102527.94;5081481;28;20371;-57
2022/07/06 04:08:34;;;;;;;;;;;;;;;10.75;79.42;102523.00;5085204;28;19912;-57
2022/07/06 04:11:00;;;;;;;;;;;;;;;10.74;79.95;102522.16;5084140;28;20363;-56
2022/07/06 04:13:25;;;;;;;;;;;;;;;10.71;79.83;102525.09;5083954;28;19922;-58
2022/07/06 04:15:50;;;;;;;;;;;;;;;10.72;80.07;102521.47;5084467;28;20371;-56
2022/07/06 04:18:16;;;;;;;;;;;;;;;10.78;80.01;102526.25;5082914;28;19950;-57
2022/07/06 04:20:41;;;;;;;;;;;;;;;10.84;80.03;102517.75;5078583;28;20374;-57
2022/07/06 04:23:06;;;;;;;;;;;;;;;10.94;80.05;102525.75;5082973;28;20279;-56
2022/07/06 04:25:31;;;;;;;;;;;;;;;11.01;79.38;102520.78;5085769;28;19959;-56
2022/07/06 04:27:56;;;;;;;;;;;;;;;11.09;79.40;102515.63;5085425;28;20287;-55
2022/07/06 04:30:21;;;;;;;;;;;;;;;11.15;79.19;102517.75;5081424;28;19917;-57
2022/07/06 04:32:47;;;;;;;;;;;;;;;11.21;79.21;102521.69;5081798;28;19946;-57
2022/07/06 04:35:12;;;;;;;;;;;;;;;11.26;79.23;102519.47;5083006;28;19919;-57
2022/07/06 04:37:38;;;;;;;;;;;;;;;11.30;79.35;102518.25;5083968;28;20383;-57
2022/07/06 04:40:04;;;;;;;;;;;;;;;11.35;78.96;102530.16;5084696;28;19922;-55
2022/07/06 04:42:29;;;;;;;;;;;;;;;11.37;78.80;102528.22;5082390;28;20458;-58
2022/07/06 04:44:54;;;;;;;;;;;;;;;11.39;79.01;102523.59;5085128;28;20352;-56
2022/07/06 04:47:19;;;;;;;;;;;;;;;11.41;79.27;102513.66;5084904;28;19939;-57
2022/07/06 04:49:45;;;;;;;;;;;;;;;11.44;78.86;102512.56;5083926;28;19957;-56
2022/07/06 04:52:10;;;;;;;;;;;;;;;11.47;78.85;102517.59;5083608;28;19916;-56
2022/07/06 04:54:35;;;;;;;;;;;;;;;11.49;78.88;102520.97;5081403;28;20398;-57
2022/07/06 04:57:00;;;;;;;;;;;;;;;11.55;79.09;102527.56;5084341;28;19916;-57
2022/07/06 04:59:26;;;;;;;;;;;;;;;11.58;79.02;102525.50;5084549;28;19977;-57
2022/07/06 05:01:51;;;;;;;;;;;;;;;11.63;79.18;102527.75;5082599;28;20006;-56
2022/07/06 05:04:19;;;;;;;;;;;;;;;11.64;79.07;102529.44;5082862;28;19912;-57
2022/07/06 05:06:45;;;;;;;;;;;;;;;11.70;79.19;102528.88;5081898;28;20225;-57
2022/07/06 05:09:10;;;;;;;;;;;;;;;11.72;79.31;102533.06;5086571;28;19919;-57
2022/07/06 05:11:37;;;;;;;;;;;;;;;11.74;79.22;102533.78;5085317;28;19926;-54
2022/07/06 05:14:02;;;;;;;;;;;;;;;11.75;79.35;102538.13;5088230;28;19916;-57
2022/07/06 05:16:27;;;;;;;;;;;;;;;11.78;79.70;102539.69;5088792;28;19916;-57
2022/07/06 05:18:52;;;;;;;;;;;;;;;11.83;80.16;102541.94;5087685;28;19998;-56
2022/07/06 05:21:18;;;;;;;;;;;;;;;11.85;80.42;102543.50;5090946;28;19985;-57
2022/07/06 05:23:43;;;;;;;;;;;;;;;11.87;80.44;102544.22;5088860;28;20371;-55
2022/07/06 05:26:08;;;;;;;;;;;;;;;11.88;79.85;102548.56;5091154;28;19959;-56
2022/07/06 05:28:33;;;;;;;;;;;;;;;11.88;80.32;102547.72;5087464;28;19937;-57
2022/07/06 05:30:59;;;;;;;;;;;;;;;11.90;80.57;102541.28;5089973;28;19919;-55
2022/07/06 05:33:24;;;;;;;;;;;;;;;11.96;80.78;102546.06;5090721;28;20002;-57
2022/07/06 05:35:49;;;;;;;;;;;;;;;12.01;80.65;102545.63;5088921;28;20456;-56
2022/07/06 05:38:15;;;;;;;;;;;;;;;12.06;80.42;102549.56;5088093;28;19912;-57
2022/07/06 05:40:40;;;;;;;;;;;;;;;12.14;80.88;102543.53;5089622;28;19955;-56
2022/07/06 05:43:05;;;;;;;;;;;;;;;12.22;80.52;102546.38;5088590;28;19943;-58
2022/07/06 05:45:30;;;;;;;;;;;;;;;12.31;81.03;102547.34;5082361;28;19912;-56
2022/07/06 05:50:39;;;;;;;;;;;;;;;12.43;81.15;102546.19;5086112;28;19972;-54
2022/07/06 05:53:05;;;;;;;;;;;;;;;12.49;81.33;102559.00;5085937;28;19916;-56
2022/07/06 05:55:31;;;;;;;;;;;;;;;12.58;81.56;102551.97;5089161;28;20311;-55
2022/07/06 05:57:56;;;;;;;;;;;;;;;12.67;81.58;102551.09;5088179;28;20283;-57
2022/07/06 06:00:22;;;;;;;;;;;;;;;12.78;81.75;102550.97;5088435;28;19916;-56
2022/07/06 06:02:47;;;;;;;;;;;;;;;12.94;81.40;102556.53;5080687;28;20395;-56
2022/07/06 06:05:13;;;;;;;;;;;;;;;13.11;81.76;102554.94;5081192;28;19920;-56
2022/07/06 06:07:38;;;;;;;;;;;;;;;13.29;81.75;102558.56;5088158;28;19912;-57
2022/07/06 06:10:04;;;;;;;;;;;;;;;13.49;81.56;102558.47;5085836;28;19968;-57
2022/07/06 06:12:30;;;;;;;;;;;;;;;13.67;81.45;102559.38;5080556;28;19912;-57
2022/07/06 06:14:55;;;;;;;;;;;;;;;13.84;80.78;102563.06;5086880;28;19980;-57
2022/07/06 06:17:20;;;;;;;;;;;;;;;13.99;80.25;102560.75;5085590;28;19920;-55
2022/07/06 06:19:45;;;;;;;;;;;;;;;14.12;79.97;102562.03;5085070;28;19912;-55
2022/07/06 06:22:10;;;;;;;;;;;;;;;14.21;79.39;102560.31;5084668;28;19915;-56
2022/07/06 06:24:35;;;;;;;;;;;;;;;14.28;79.19;102558.69;5079277;28;20106;-55
2022/07/06 06:27:01;;;;;;;;;;;;;;;14.35;78.45;102565.09;5081576;28;19912;-58
2022/07/06 06:29:26;;;;;;;;;;;;;;;14.41;78.29;102566.31;5082396;28;20049;-57
2022/07/06 06:31:51;;;;;;;;;;;;;;;14.48;77.56;102562.09;5082255;28;19911;-56
2022/07/06 06:34:16;;;;;;;;;;;;;;;14.54;76.68;102562.31;5086123;28;20041;-56
2022/07/06 06:36:41;;;;;;;;;;;;;;;14.60;76.40;102568.03;5084256;28;20367;-57
2022/07/06 06:39:07;;;;;;;;;;;;;;;14.67;76.33;102564.56;5087856;28;19953;-56
2022/07/06 06:41:32;;;;;;;;;;;;;;;14.73;75.96;102566.63;5085190;28;19916;-57
2022/07/06 06:43:57;;;;;;;;;;;;;;;14.81;75.35;102563.19;5082826;28;20402;-58
2022/07/06 06:46:22;;;;;;;;;;;;;;;14.83;74.66;102562.03;5089633;28;19908;-57
2022/07/06 06:48:47;;;;;;;;;;;;;;;14.91;74.54;102569.25;5089351;28;19922;-55
2022/07/06 06:51:13;;;;;;;;;;;;;;;14.97;74.67;102565.13;5078661;28;20415;-56
2022/07/06 06:53:38;;;;;;;;;;;;;;;15.01;74.20;102569.16;5085261;28;20008;-54
2022/07/06 06:56:03;;;;;;;;;;;;;;;15.05;74.19;102571.38;5083030;28;20411;-56
2022/07/06 06:58:28;;;;;;;;;;;;;;;15.05;73.99;102568.72;5080054;28;19926;-56
2022/07/06 07:00:54;;;;;;;;;;;;;;;15.08;73.70;102568.38;5078809;28;19920;-57
2022/07/06 07:03:20;;;;;;;;;;;;;;;15.11;73.35;102570.75;5088540;28;19908;-57
2022/07/06 07:05:45;;;;;;;;;;;;;;;15.14;73.38;102574.94;5083768;28;19915;-57
2022/07/06 07:08:10;;;;;;;;;;;;;;;15.15;73.01;102569.44;5082534;28;20488;-57
2022/07/06 07:10:35;;;;;;;;;;;;;;;15.21;72.73;102569.78;5089148;28;20009;-57
2022/07/06 07:13:00;;;;;;;;;;;;;;;15.30;72.33;102574.19;5084971;28;19920;-56
2022/07/06 07:15:26;;;;;;;;;;;;;;;15.34;71.96;102565.69;5087770;28;19928;-56
2022/07/06 07:17:51;;;;;;;;;;;;;;;15.43;72.03;102571.91;5088742;28;19912;-57
2022/07/06 07:20:16;;;;;;;;;;;;;;;15.55;72.09;102575.97;5087544;28;19908;-57
2022/07/06 07:22:41;;;;;;;;;;;;;;;15.66;71.54;102577.59;5080163;28;19957;-58
2022/07/06 07:25:07;;;;;;;;;;;;;;;15.76;71.29;102576.44;5080313;28;19912;-58
2022/07/06 07:27:32;;;;;;;;;;;;;;;15.86;70.81;102575.44;5082813;28;19916;-57
2022/07/06 07:29:57;;;;;;;;;;;;;;;15.93;70.58;102577.34;5085018;28;19912;-57
2022/07/06 07:32:23;;;;;;;;;;;;;;;16.01;70.12;102569.31;5084535;28;20345;-56
2022/07/06 07:34:48;;;;;;;;;;;;;;;16.13;69.75;102575.19;5088580;28;19911;-56
2022/07/06 07:37:13;;;;;;;;;;;;;;;16.26;69.28;102580.94;5085998;28;19918;-57
2022/07/06 07:39:38;;;;;;;;;;;;;;;16.31;67.75;102572.38;5088747;28;19915;-57
2022/07/06 07:42:03;;;;;;;;;;;;;;;16.37;67.79;102574.38;5088220;28;19908;-56
2022/07/06 07:44:29;;;;;;;;;;;;;;;16.47;67.94;102575.06;5087486;28;20257;-57
2022/07/06 07:46:54;;;;;;;;;;;;;;;16.57;67.86;102569.56;5086128;28;19922;-56
2022/07/06 07:49:20;;;;;;;;;;;;;;;16.66;67.51;102566.72;5086789;28;19912;-55
2022/07/06 07:51:46;;;;;;;;;;;;;;;16.78;67.63;102564.56;5087983;28;20321;-54
2022/07/06 07:54:12;;;;;;;;;;;;;;;16.89;67.46;102572.25;5088064;28;19934;-58
2022/07/06 07:56:40;;;;;;;;;;;;;;;16.98;66.82;102576.56;5087105;28;19921;-57
2022/07/06 07:59:05;;;;;;;;;;;;;;;17.09;66.03;102577.25;5087853;28;19916;-56
2022/07/06 08:01:30;;;;;;;;;;;;;;;17.13;65.49;102581.25;5082201;28;19916;-57
2022/07/06 08:03:55;;;;;;;;;;;;;;;17.18;64.81;102570.84;5088548;28;20321;-57
2022/07/06 08:06:21;;;;;;;;;;;;;;;17.20;63.94;102571.50;5086295;28;19915;-57
2022/07/06 08:08:46;;;;;;;;;;;;;;;17.22;63.30;102566.81;5088536;28;20332;-57
2022/07/06 08:11:11;;;;;;;;;;;;;;;17.28;63.30;102558.06;5084904;28;19908;-57
2022/07/06 08:13:36;;;;;;;;;;;;;;;17.33;63.08;102561.06;5088379;28;20424;-57
2022/07/06 08:16:02;;;;;;;;;;;;;;;17.37;62.48;102562.41;5087811;28;19912;-57
2022/07/06 08:18:27;;;;;;;;;;;;;;;17.45;62.72;102566.91;5086872;28;19914;-56
2022/07/06 08:20:52;;;;;;;;;;;;;;;17.57;62.58;102557.44;5088078;28;19994;-55
2022/07/06 08:23:18;;;;;;;;;;;;;;;17.74;62.24;102563.63;5086933;28;19912;-57
2022/07/06 08:25:43;;;;;;;;;;;;;;;17.85;62.11;102557.84;5087482;28;19999;-56
2022/07/06 08:28:08;;;;;;;;;;;;;;;17.99;61.64;102561.63;5086572;28;19912;-57
2022/07/06 08:30:34;;;;;;;;;;;;;;;18.11;61.62;102561.03;5085400;28;20373;-58
2022/07/06 08:33:00;;;;;;;;;;;;;;;18.28;60.95;102559.09;5084743;28;19912;-56
2022/07/06 08:35:25;;;;;;;;;;;;;;;18.41;60.72;102555.78;5087099;28;20284;-57
2022/07/06 08:37:50;;;;;;;;;;;;;;;18.51;59.73;102557.22;5084357;28;20006;-57
2022/07/06 08:40:15;;;;;;;;;;;;;;;18.61;59.41;102558.81;5087718;28;19961;-57
2022/07/06 08:42:42;;;;;;;;;;;;;;;18.63;58.32;102559.50;5086912;28;19923;-56
2022/07/06 08:45:07;;;;;;;;;;;;;;;18.62;57.84;102552.41;5091565;28;19953;-55
2022/07/06 08:47:35;;;;;;;;;;;;;;;18.62;57.03;102558.66;5091491;28;19911;-55
2022/07/06 08:50:01;;;;;;;;;;;;;;;18.62;56.84;102558.66;5088786;28;19912;-57
2022/07/06 08:52:27;;;;;;;;;;;;;;;18.67;56.85;102553.56;5090844;28;19956;-56
2022/07/06 08:54:53;;;;;;;;;;;;;;;18.76;56.31;102549.78;5090860;28;19931;-56
2022/07/06 08:57:19;;;;;;;;;;;;;;;18.92;56.23;102543.41;5088077;28;20252;-56
2022/07/06 08:59:44;;;;;;;;;;;;;;;19.12;56.27;102543.72;5091852;28;20375;-56
2022/07/06 09:02:10;;;;;;;;;;;;;;;19.22;55.83;102541.56;5088674;28;19908;-56
2022/07/06 09:04:36;;;;;;;;;;;;;;;19.21;54.79;102537.19;5087516;28;19915;-57
2022/07/06 09:07:01;;;;;;;;;;;;;;;19.16;53.56;102545.00;5090721;28;19959;-56
2022/07/06 09:09:28;;;;;;;;;;;;;;;19.10;53.56;102546.59;5090444;28;19915;-55
2022/07/06 09:11:53;;;;;;;;;;;;;;;19.13;54.31;102546.22;5090746;28;19934;-57
2022/07/06 09:14:19;;;;;;;;;;;;;;;19.21;52.72;102544.44;5088384;28;20367;-56
2022/07/06 09:16:45;;;;;;;;;;;;;;;19.24;52.72;102538.69;5090286;28;19912;-57
2022/07/06 09:19:11;;;;;;;;;;;;;;;19.20;52.13;102540.91;5089566;28;19908;-55
2022/07/06 09:21:36;;;;;;;;;;;;;;;19.24;53.02;102536.81;5090459;28;20430;-55
2022/07/06 09:24:05;;;;;;;;;;;;;;;19.42;52.45;102542.69;5089527;28;19916;-54
2022/07/06 09:26:30;;;;;;;;;;;;;;;19.72;52.01;102548.06;5088344;28;19939;-57
2022/07/06 09:28:56;;;;;;;;;;;;;;;19.94;52.62;102541.66;5086123;28;20355;-57
2022/07/06 09:31:21;;;;;;;;;;;;;;;20.14;52.37;102541.03;5088685;28;20282;-57
2022/07/06 09:34:06;;;;;;;;;;;;;;;20.35;51.85;102549.97;5091420;28;19912;-57
2022/07/06 09:36:41;;;;;;;;;;;;;;;20.60;50.73;102544.19;5089738;28;19916;-57
2022/07/06 09:39:24;;;;;;;;;;;;;;;20.73;50.27;102555.91;5086281;28;19916;-55
2022/07/06 09:41:50;;;;;;;;;;;;;;;20.73;50.30;102555.06;5082196;28;19935;-56
2022/07/06 09:44:29;;;;;;;;;;;;;;;20.69;49.24;102551.94;5091011;28;19966;-57
2022/07/06 09:47:01;;;;;;;;;;;;;;;20.61;49.27;102551.25;5090661;28;19935;-56
2022/07/06 09:49:27;;;;;;;;;;;;;;;20.54;49.62;102548.50;5088769;28;19908;-57
2022/07/06 09:51:54;;;;;;;;;;;;;;;20.43;47.54;102554.41;5088691;28;19918;-56
2022/07/06 09:54:19;;;;;;;;;;;;;;;20.22;47.93;102552.50;5089075;28;19956;-57
2022/07/06 09:56:50;;;;;;;;;;;;;;;20.03;48.40;102555.88;5088911;28;20294;-57
2022/07/06 09:59:16;;;;;;;;;;;;;;;19.95;48.83;102562.22;5085152;28;19919;-55
2022/07/06 10:01:42;;;;;;;;;;;;;;;19.83;48.18;102563.72;5081417;28;19912;-56
2022/07/06 10:04:07;;;;;;;;;;;;;;;19.75;47.71;102567.38;5090326;28;19990;-54
2022/07/06 10:06:33;;;;;;;;;;;;;;;19.72;48.58;102561.53;5089455;28;19919;-55
2022/07/06 10:08:58;;;;;;;;;;;;;;;19.77;47.46;102556.41;5090949;28;20366;-57
2022/07/06 10:11:24;;;;;;;;;;;;;;;19.63;47.40;102566.16;5088058;28;19908;-57
2022/07/06 10:13:50;;;;;;;;;;;;;;;19.58;47.86;102562.38;5090169;28;20329;-57
2022/07/06 10:16:15;;;;;;;;;;;;;;;19.69;47.67;102568.13;5089310;28;19959;-59
2022/07/06 10:18:41;;;;;;;;;;;;;;;19.80;47.56;102566.81;5090318;28;19911;-57
2022/07/06 10:21:06;;;;;;;;;;;;;;;19.82;47.32;102569.31;5089659;28;19937;-56
2022/07/06 10:23:33;;;;;;;;;;;;;;;19.95;47.27;102561.34;5088638;28;19949;-57
2022/07/06 10:25:58;;;;;;;;;;;;;;;20.05;48.07;102567.28;5089936;28;19908;-55
2022/07/06 10:28:23;;;;;;;;;;;;;;;20.18;47.97;102566.59;5088325;28;19912;-57
2022/07/06 10:30:49;;;;;;;;;;;;;;;20.24;46.83;102563.13;5087407;28;19918;-55
2022/07/06 10:33:15;;;;;;;;;;;;;;;20.33;46.97;102562.81;5089163;28;20397;-57
2022/07/06 10:35:41;;;;;;;;;;;;;;;20.42;46.90;102558.16;5087956;28;19918;-56
2022/07/06 10:38:07;;;;;;;;;;;;;;;20.27;46.25;102569.00;5090199;28;19908;-56
2022/07/06 10:43:17;;;;;;;;;;;;;;;20.21;46.47;102550.00;5081763;28;19938;-56
2022/07/06 10:45:44;;;;;;;;;;;;;;;20.32;46.18;102560.31;5077642;28;20275;-56
2022/07/06 10:48:12;;;;;;;;;;;;;;;20.37;45.93;102553.31;5082602;28;19934;-55
2022/07/06 10:50:39;;;;;;;;;;;;;;;20.51;46.23;102548.03;5079725;28;19922;-57
2022/07/06 10:53:11;;;;;;;;;;;;;;;20.60;45.57;102561.22;5078315;28;20326;-54
2022/07/06 10:55:37;;;;;;;;;;;;;;;20.60;45.31;102547.72;5084494;28;19930;-55
2022/07/06 10:58:03;;;;;;;;;;;;;;;20.45;44.62;102552.34;5080279;28;19912;-56
2022/07/06 11:00:46;;;;;;;;;;;;;;;20.32;45.57;102554.91;5080496;28;19951;-56
2022/07/06 11:03:31;;;;;;;;;;;;;;;20.33;45.59;102557.41;5079519;28;20182;-56
2022/07/06 11:06:01;;;;;;;;;;;;;;;20.35;45.09;102552.66;5079670;28;20420;-55
2022/07/06 11:08:49;;;;;;;;;;;;;;;20.23;45.12;102548.78;5080413;28;20878;-56
2022/07/06 11:11:16;;;;;;;;;;;;;;;20.16;45.68;102557.84;5069714;28;19980;-56
2022/07/06 11:14:02;;;;;;;;;;;;;;;20.21;46.30;102552.72;5079456;28;19912;-54
2022/07/06 11:16:29;;;;;;;;;;;;;;;20.31;45.83;102553.25;5072114;28;19924;-54
2022/07/06 11:19:02;;;;;;;;;;;;;;;20.46;45.46;102553.19;5078590;28;20087;-56
2022/07/06 11:21:38;;;;;;;;;;;;;;;20.57;45.45;102547.28;5080582;28;20007;-56
2022/07/06 11:24:04;;;;;;;;;;;;;;;20.50;43.73;102549.06;5077785;28;19924;-56
2022/07/06 11:26:30;;;;;;;;;;;;;;;20.19;43.75;102534.03;5078720;28;19931;-55
2022/07/06 11:28:55;;;;;;;;;;;;;;;19.98;44.19;102542.97;5077619;28;19920;-54
2022/07/06 11:31:20;;;;;;;;;;;;;;;19.95;44.41;102535.25;5080788;28;20162;-56
2022/07/06 11:33:46;;;;;;;;;;;;;;;20.01;44.29;102539.03;5077257;28;20379;-56
2022/07/06 11:36:19;;;;;;;;;;;;;;;20.08;44.15;102535.38;5081860;28;20438;-55
2022/07/06 11:38:46;;;;;;;;;;;;;;;20.18;45.53;102534.22;5079323;28;19912;-55
2022/07/06 11:41:13;;;;;;;;;;;;;;;20.42;45.16;102536.56;5080248;28;20041;-55
2022/07/06 11:43:42;;;;;;;;;;;;;;;20.50;45.27;102533.72;5076862;28;19993;-55
2022/07/06 11:46:16;;;;;;;;;;;;;;;20.45;44.17;102521.84;5080975;28;19911;-55
2022/07/06 11:48:48;;;;;;;;;;;;;;;20.40;43.90;102509.75;5078697;28;20471;-56
2022/07/06 11:51:14;;;;;;;;;;;;;;;20.46;44.16;102515.41;5079237;28;19912;-55
2022/07/06 11:53:42;;;;;;;;;;;;;;;20.47;43.83;102512.50;5073983;28;19912;-54
2022/07/06 11:56:08;;;;;;;;;;;;;;;20.49;44.37;102507.75;5078250;28;19920;-55
2022/07/06 11:58:34;;;;;;;;;;;;;;;20.59;44.57;102505.56;5079297;28;20147;-55
2022/07/06 12:01:03;;;;;;;;;;;;;;;20.57;43.73;102507.63;5078217;28;19913;-54
2022/07/06 12:03:29;;;;;;;;;;;;;;;20.68;44.03;102498.97;5076808;28;19912;-55
2022/07/06 12:05:54;;;;;;;;;;;;;;;20.72;43.81;102497.53;5077211;28;19916;-58
2022/07/06 12:08:19;;;;;;;;;;;;;;;20.70;43.00;102501.47;5076682;28;21073;-54
2022/07/06 12:10:44;;;;;;;;;;;;;;;20.78;43.23;102486.97;5082375;28;19927;-56
2022/07/06 12:13:10;;;;;;;;;;;;;;;20.87;43.05;102497.44;5077899;28;19920;-56
2022/07/06 12:15:35;;;;;;;;;;;;;;;21.04;42.79;102489.84;5081596;28;19927;-55
2022/07/06 12:18:00;;;;;;;;;;;;;;;21.13;42.17;102491.38;5078080;28;19919;-57
2022/07/06 12:20:26;;;;;;;;;;;;;;;21.15;42.25;102489.28;5083875;28;19930;-55
2022/07/06 12:23:00;;;;;;;;;;;;;;;21.20;42.04;102488.69;5086072;28;19916;-54
2022/07/06 12:25:29;;;;;;;;;;;;;;;21.20;42.36;102486.00;5083462;28;19916;-52
2022/07/06 12:27:54;;;;;;;;;;;;;;;21.14;42.50;102484.94;5082166;28;19924;-55
2022/07/06 12:30:19;;;;;;;;;;;;;;;21.33;42.23;102489.59;5082588;28;21075;-55
2022/07/06 12:32:44;;;;;;;;;;;;;;;21.51;41.97;102480.94;5083500;28;19978;-55
2022/07/06 12:35:11;;;;;;;;;;;;;;;21.72;41.13;102473.72;5085539;28;20382;-52
2022/07/06 12:37:36;;;;;;;;;;;;;;;21.68;40.04;102467.88;5090459;28;19916;-55